H.kanter — ESUB — position and weather

sailwx.info

Track history (hours):
 
Tides and Currents Weather Stations Pressure Air Temp Water Temp Dewpoint Dewpoint Depression Visibility Wind Speed Wind Dir Waves Ship Positions

H.kanter

Last reported at 2016-Jul-28 11:30 UTC. Time now 2016-Aug-30 22:33 UTC.
Position N 59°30' E 024°56'.
Warning: this ship's position is 33 days out of date.

Length 33 m; draft 4.8 m.

Type: Tug. MMSI: 276504000.

Date/timePositionNaut miles runAvg speedWind from/ knotsBaromVisibWave heightAir tempDewpointWater temp
2016-Jul-28 11:30N 59°30' E 024°56'0 0.0
2016-Jul-28 09:11N 59°30' E 024°56'0 0.0
2016-Jul-28 08:05N 59°30' E 024°56'2 0.4
2016-Jul-28 03:33N 59°32' E 024°57'9 9.2
2016-Jul-28 02:33N 59°37' E 024°42'9 9.0
2016-Jul-28 01:33N 59°28' E 024°38'0 0.2
2016-Jul-28 00:33N 59°28' E 024°39'1 1.3
2016-Jul-27 23:34N 59°29' E 024°37'9 9.3
2016-Jul-27 22:33N 59°38' E 024°43'  
Track history (hours):
 
Tides and Currents Weather Stations Pressure Air Temp Water Temp Dewpoint Dewpoint Depression Visibility Wind Speed Wind Dir Waves Ship Positions

H.kanter

Last reported at 2016-Jul-28 11:30 UTC. Time now 2016-Aug-30 22:33 UTC.
Position N 59°30' E 024°56'.
Warning: this ship's position is 33 days out of date.

Length 33 m; draft 4.8 m.

Type: Tug. MMSI: 276504000.

Date/timePositionNaut miles runAvg speedWind from/ knotsBaromVisibWave heightAir tempDewpointWater temp
2016-Jul-28 11:30N 59°30' E 024°56'0 0.0
2016-Jul-28 09:11N 59°30' E 024°56'0 0.0
2016-Jul-28 08:05N 59°30' E 024°56'2 0.4
2016-Jul-28 03:33N 59°32' E 024°57'9 9.2
2016-Jul-28 02:33N 59°37' E 024°42'9 9.0
2016-Jul-28 01:33N 59°28' E 024°38'0 0.2
2016-Jul-28 00:33N 59°28' E 024°39'1 1.3
2016-Jul-27 23:34N 59°29' E 024°37'9 9.3
2016-Jul-27 22:33N 59°38' E 024°43'  

Dump ship's entire track history